Pagina principale
METAR-TAF:

METAR-TAF

Aeroporti :

Aeroporto di Magadino

Locarno, Svizzera

latitudine: 46-09-55N, longitudine: 8-52-40E, altezza: 198 m

Osservazione

Il bollettino è stato emesso 1 ora e 5 minuti fa, alle 09:50 UTC
Vento 2 kt da direzioni variabili
Temperature 11°C
Umidità 62%
Pressione 1022 hPa
Visibilità 10 km o più
nessuna nube inferiore a 1500 m e nessun cumulonembo

METAR: LSZL 260950Z VRB02KT CAVOK 11/04 Q1022 RMK BLU

Ora: 12:55 (10:55 UTC)

Previsione

Il bollettino è stato emesso 5 ore e 30 minuti fa, alle 05:25 UTC
Previsione valida dal 26 alle 06 UTC al 26 alle 15 UTC
Vento 2 kt da direzioni variabili
Visibilità 10 km o più
nessuna nube inferiore a 1500 m e nessun cumulonembo
Probabilità 40%
dal 26 alle 06 UTC al 26 alle 08 UTC
Visibilità: 2500 m
Poco nuvoloso ad un'altezza di 200 ft
foschia

TAF: LSZL 260525Z 2606/2615 VRB02KT CAVOK PROB40 2606/2608 2500 BR FEW002

Osservazioni e previsioni meteorologiche di più di 4000 aeroporti (messaggi METAR e TAF).

Le stazioni disponibili sono rappresentate dai dischi gialli e rossi sulla carta.

Puntare il mouse per vedere il nome della stazione.

Clicca sopra per visualizzare le osservazioni e previsioni meteorologiche.

Per cambiare la mappa : fare clic sui pulsanti verdi con una croce nera per ingrandire, il pulsante verde con un trattino per diminuire, o sulla freccia verde per le mappe adiacenti.


METAR-TAF: